Time;durP1;ratioP1;P1;durP2;ratioP2;P2;SDS_P1;SDS_P2;PMS_P1;PMS_P2;Temp;Humidity;BMP_temperature;BMP_pressure;BME280_temperature;BME280_humidity;BME280_pressure;Samples;Min_cycle;Max_cycle;Signal;HPM_P1;HPM_P2
2023/12/14 05:30:13;;;;;;;0.10;0.10;;;6.50;81.50;;;;;;6014215;23;20108;-77
2023/12/14 05:32:38;;;;;;;0.10;0.10;;;6.50;81.50;;;;;;4918931;29;20028;-77
2023/12/14 05:35:04;;;;;;;0.10;0.10;;;6.50;81.30;;;;;;4916112;29;20042;-76
2023/12/14 05:37:30;;;;;;;0.10;0.10;;;6.50;81.70;;;;;;4918447;29;20048;-77
2023/12/14 05:39:55;;;;;;;0.10;0.10;;;6.60;82.00;;;;;;4902569;29;20088;-77
2023/12/14 05:42:21;;;;;;;0.10;0.10;;;6.60;82.20;;;;;;4926570;29;20446;-77
2023/12/14 05:44:47;;;;;;;0.10;0.10;;;6.70;82.10;;;;;;4919511;29;20431;-77
2023/12/14 05:47:12;;;;;;;0.10;0.10;;;6.80;81.90;;;;;;4902460;29;20103;-77
2023/12/14 05:49:42;;;;;;;0.10;0.10;;;6.80;81.80;;;;;;4917190;29;20060;-77
2023/12/14 05:52:08;;;;;;;0.10;0.10;;;6.80;81.60;;;;;;4919268;29;20036;-77
2023/12/14 05:54:36;;;;;;;0.10;0.10;;;6.80;81.40;;;;;;4901088;29;20055;-77
2023/12/14 05:57:02;;;;;;;0.10;0.10;;;6.80;81.50;;;;;;4904722;29;20033;-77
2023/12/14 05:59:27;;;;;;;0.10;0.10;;;6.80;81.60;;;;;;4915907;29;20079;-75
2023/12/14 06:01:57;;;;;;;0.10;0.10;;;6.80;81.40;;;;;;4908837;29;20079;-77
2023/12/14 06:04:23;;;;;;;0.10;0.10;;;6.80;81.50;;;;;;4895063;29;20033;-76
2023/12/14 06:06:49;;;;;;;0.20;0.20;;;6.80;81.40;;;;;;4930836;29;20075;-78
2023/12/14 06:09:15;;;;;;;0.10;0.10;;;6.80;81.70;;;;;;4938057;29;20024;-77
2023/12/14 06:11:40;;;;;;;0.10;0.10;;;6.80;81.70;;;;;;4905863;29;20043;-77
2023/12/14 06:14:06;;;;;;;0.10;0.10;;;6.80;81.80;;;;;;4919382;29;20025;-77
2023/12/14 06:16:31;;;;;;;0.10;0.10;;;6.90;81.80;;;;;;4914561;29;20033;-78
2023/12/14 06:18:57;;;;;;;0.10;0.10;;;6.90;81.60;;;;;;4900236;29;20044;-77
2023/12/14 06:21:26;;;;;;;0.10;0.10;;;6.80;81.80;;;;;;4898585;29;20040;-78
2023/12/14 06:23:51;;;;;;;0.10;0.10;;;6.80;81.90;;;;;;4900519;29;20024;-75
2023/12/14 06:26:17;;;;;;;0.10;0.10;;;6.80;82.00;;;;;;4900791;29;20575;-75
2023/12/14 06:28:43;;;;;;;0.10;0.10;;;6.80;82.30;;;;;;4900283;29;20028;-75
2023/12/14 06:31:15;;;;;;;0.10;0.10;;;6.80;82.00;;;;;;4914798;29;20115;-75
2023/12/14 06:33:41;;;;;;;0.10;0.10;;;6.80;82.50;;;;;;4901704;29;20491;-75
2023/12/14 06:36:08;;;;;;;0.10;0.10;;;6.90;82.50;;;;;;4914655;29;20056;-81
2023/12/14 06:38:34;;;;;;;0.10;0.10;;;6.90;82.50;;;;;;4900621;29;20028;-81
2023/12/14 06:41:01;;;;;;;0.10;0.10;;;6.90;82.70;;;;;;4901848;29;20043;-83
2023/12/14 06:43:27;;;;;;;0.10;0.10;;;6.90;82.30;;;;;;4918809;29;20028;-83
2023/12/14 06:45:53;;;;;;;0.10;0.10;;;6.90;82.20;;;;;;4902433;29;20029;-82
2023/12/14 06:48:19;;;;;;;0.10;0.10;;;6.90;82.20;;;;;;4897865;29;20039;-80
2023/12/14 06:50:45;;;;;;;0.10;0.10;;;6.90;81.80;;;;;;4900837;29;20035;-82
2023/12/14 06:53:11;;;;;;;0.10;0.10;;;6.80;81.20;;;;;;4902295;29;20422;-82
2023/12/14 06:55:36;;;;;;;0.10;0.10;;;6.70;82.10;;;;;;4901116;29;20036;-82
2023/12/14 06:58:02;;;;;;;0.10;0.10;;;6.70;82.20;;;;;;4902072;29;20398;-82
2023/12/14 07:00:29;;;;;;;0.10;0.10;;;6.80;82.10;;;;;;4919304;29;20047;-82
2023/12/14 07:02:55;;;;;;;0.10;0.10;;;6.80;82.40;;;;;;4901835;29;20024;-82
2023/12/14 07:05:20;;;;;;;0.10;0.10;;;6.90;82.40;;;;;;4897673;29;20029;-82
2023/12/14 07:07:46;;;;;;;0.10;0.10;;;6.80;82.30;;;;;;4900316;29;20035;-81
2023/12/14 07:10:11;;;;;;;0.10;0.10;;;6.80;82.40;;;;;;4900706;29;20444;-82
2023/12/14 07:12:37;;;;;;;0.10;0.10;;;6.80;82.50;;;;;;4899936;29;20060;-83
2023/12/14 07:15:03;;;;;;;0.10;0.10;;;6.80;82.80;;;;;;4898934;29;20071;-82
2023/12/14 07:17:29;;;;;;;0.10;0.10;;;6.90;82.70;;;;;;4900182;29;20041;-82
2023/12/14 07:19:54;;;;;;;0.10;0.10;;;6.90;82.60;;;;;;4883269;29;20028;-82
2023/12/14 07:22:20;;;;;;;0.10;0.10;;;7.00;82.40;;;;;;4899997;29;20067;-83
2023/12/14 07:24:46;;;;;;;0.10;0.10;;;7.00;82.60;;;;;;4898759;29;20444;-82
2023/12/14 07:27:11;;;;;;;0.10;0.10;;;6.90;82.80;;;;;;4898761;29;20124;-83
2023/12/14 07:29:37;;;;;;;0.10;0.10;;;6.90;83.00;;;;;;4900033;29;20035;-82
2023/12/14 07:32:03;;;;;;;0.10;0.10;;;6.90;83.00;;;;;;4899837;29;20051;-83
2023/12/14 07:34:28;;;;;;;0.10;0.10;;;6.90;83.00;;;;;;4908990;29;20032;-83
2023/12/14 07:36:54;;;;;;;0.10;0.10;;;6.90;82.90;;;;;;4901996;29;20059;-83
2023/12/14 07:39:20;;;;;;;0.13;0.13;;;6.90;82.90;;;;;;4904707;29;20134;-83
2023/12/14 07:41:46;;;;;;;0.10;0.10;;;6.80;83.30;;;;;;4922384;29;20163;-82
2023/12/14 07:44:12;;;;;;;0.10;0.10;;;7.00;83.30;;;;;;4940453;29;20020;-82
2023/12/14 07:46:41;;;;;;;0.10;0.10;;;7.00;83.10;;;;;;4903507;29;20036;-82
2023/12/14 07:49:07;;;;;;;0.10;0.10;;;7.10;83.20;;;;;;4916897;29;20395;-83
2023/12/14 07:51:32;;;;;;;0.13;0.13;;;7.10;83.10;;;;;;4922168;29;20032;-82
2023/12/14 07:53:58;;;;;;;0.10;0.10;;;7.20;83.20;;;;;;4904441;29;20040;-82
2023/12/14 07:56:27;;;;;;;0.10;0.10;;;7.20;83.20;;;;;;4905251;29;20028;-82
2023/12/14 07:58:53;;;;;;;0.10;0.10;;;7.20;83.20;;;;;;4922122;29;20035;-82
2023/12/14 08:01:18;;;;;;;0.10;0.10;;;7.20;82.90;;;;;;4905117;29;20028;-83
2023/12/14 08:03:44;;;;;;;0.10;0.10;;;7.20;83.00;;;;;;4903637;29;20069;-83
2023/12/14 08:06:10;;;;;;;0.10;0.10;;;7.20;83.00;;;;;;4905221;29;20741;-83
2023/12/14 08:08:37;;;;;;;0.10;0.10;;;7.20;82.70;;;;;;4900694;29;20160;-82
2023/12/14 08:11:03;;;;;;;0.10;0.10;;;7.20;82.70;;;;;;4914510;29;20019;-83
2023/12/14 08:13:29;;;;;;;0.10;0.10;;;7.20;82.90;;;;;;4921719;29;20063;-83
2023/12/14 08:15:55;;;;;;;0.10;0.10;;;7.20;82.80;;;;;;4908237;29;20037;-83
2023/12/14 08:18:21;;;;;;;0.10;0.10;;;7.30;82.90;;;;;;4902987;29;20499;-82
2023/12/14 08:20:46;;;;;;;0.10;0.10;;;7.30;82.70;;;;;;4915849;29;20028;-83
2023/12/14 08:23:12;;;;;;;0.10;0.10;;;7.30;82.50;;;;;;4921268;29;20032;-83
2023/12/14 08:25:38;;;;;;;0.10;0.10;;;7.30;82.70;;;;;;4903017;29;20032;-82
2023/12/14 08:28:03;;;;;;;0.10;0.10;;;7.30;82.70;;;;;;4902707;29;20024;-82
2023/12/14 08:30:29;;;;;;;0.10;0.10;;;7.30;82.80;;;;;;4885707;29;20086;-82
2023/12/14 08:32:55;;;;;;;0.10;0.10;;;7.30;82.70;;;;;;4885869;29;20779;-82
2023/12/14 08:35:21;;;;;;;0.10;0.10;;;7.40;82.70;;;;;;4903748;29;20028;-82
2023/12/14 08:37:47;;;;;;;0.10;0.10;;;7.40;82.40;;;;;;4921430;29;20040;-82
2023/12/14 08:40:12;;;;;;;0.10;0.10;;;7.40;82.70;;;;;;4924347;29;20394;-82
2023/12/14 08:42:38;;;;;;;0.10;0.10;;;7.40;82.50;;;;;;4940223;29;20062;-83
2023/12/14 08:45:04;;;;;;;0.10;0.10;;;7.40;82.70;;;;;;4928087;29;20028;-81
2023/12/14 08:47:30;;;;;;;0.10;0.10;;;7.50;82.60;;;;;;4902124;29;20033;-82
2023/12/14 08:49:56;;;;;;;0.10;0.10;;;7.50;82.50;;;;;;4900060;29;20040;-84
2023/12/14 08:52:21;;;;;;;0.10;0.10;;;7.50;82.60;;;;;;4901244;29;20037;-83
2023/12/14 08:54:47;;;;;;;0.10;0.10;;;7.50;82.50;;;;;;4885230;29;20036;-83
2023/12/14 08:57:12;;;;;;;0.10;0.10;;;7.50;82.60;;;;;;4900876;29;20036;-83
2023/12/14 08:59:38;;;;;;;0.10;0.10;;;7.50;82.40;;;;;;4901951;29;20045;-83
2023/12/14 09:02:04;;;;;;;0.10;0.10;;;7.50;82.40;;;;;;4899614;29;20061;-83
2023/12/14 09:04:30;;;;;;;0.10;0.10;;;7.60;82.60;;;;;;4911077;29;20032;-81
2023/12/14 09:06:55;;;;;;;0.10;0.10;;;7.60;82.60;;;;;;4903826;29;20176;-82
2023/12/14 09:09:21;;;;;;;0.10;0.10;;;7.70;82.60;;;;;;4903894;29;20028;-82
2023/12/14 09:11:46;;;;;;;0.10;0.10;;;7.70;82.70;;;;;;4908946;29;20052;-82
2023/12/14 09:14:12;;;;;;;0.10;0.10;;;7.80;82.70;;;;;;4901628;29;20492;-82
2023/12/14 09:16:38;;;;;;;0.10;0.10;;;7.80;82.70;;;;;;4900502;29;20029;-82
2023/12/14 09:19:03;;;;;;;0.10;0.10;;;7.80;82.80;;;;;;4900532;29;20444;-82
2023/12/14 09:21:30;;;;;;;0.10;0.10;;;7.90;82.60;;;;;;4899404;29;20365;-82
2023/12/14 09:23:55;;;;;;;0.10;0.10;;;7.90;82.70;;;;;;4884709;29;20092;-83
2023/12/14 09:26:21;;;;;;;0.10;0.10;;;7.90;82.90;;;;;;4901498;29;20024;-83
2023/12/14 09:28:46;;;;;;;0.10;0.10;;;7.90;82.60;;;;;;4901256;29;20492;-83
2023/12/14 09:31:12;;;;;;;0.10;0.10;;;7.90;82.60;;;;;;4905423;29;20053;-83
2023/12/14 09:33:38;;;;;;;0.10;0.10;;;7.90;82.60;;;;;;4917564;29;20125;-83
2023/12/14 09:36:04;;;;;;;0.10;0.10;;;7.90;82.70;;;;;;4919087;29;20031;-82
2023/12/14 09:38:30;;;;;;;0.10;0.10;;;8.00;82.80;;;;;;4899979;29;20056;-83
2023/12/14 09:40:56;;;;;;;0.10;0.10;;;8.00;82.80;;;;;;4910487;29;20032;-83
2023/12/14 09:43:23;;;;;;;0.10;0.10;;;8.20;82.90;;;;;;4901290;29;20048;-83
2023/12/14 09:45:49;;;;;;;0.10;0.10;;;8.20;82.60;;;;;;4900000;29;20032;-83
2023/12/14 09:48:16;;;;;;;0.10;0.10;;;8.20;82.70;;;;;;4913789;29;20040;-83
2023/12/14 09:50:45;;;;;;;0.10;0.10;;;8.20;82.60;;;;;;4900976;29;20462;-83
2023/12/14 09:53:10;;;;;;;0.10;0.10;;;8.30;82.60;;;;;;4901164;29;20043;-83
2023/12/14 09:55:36;;;;;;;0.10;0.10;;;8.40;82.50;;;;;;4901019;29;20033;-83
2023/12/14 09:58:06;;;;;;;0.10;0.10;;;8.40;82.40;;;;;;4915715;29;20028;-83
2023/12/14 10:00:36;;;;;;;0.10;0.10;;;8.50;82.60;;;;;;4915414;29;20107;-83
2023/12/14 10:03:27;;;;;;;0.10;0.10;;;8.50;82.20;;;;;;4917101;29;20036;-83
2023/12/14 10:05:54;;;;;;;0.20;0.20;;;8.50;82.40;;;;;;4899844;29;20123;-83
2023/12/14 10:08:19;;;;;;;0.10;0.10;;;8.60;82.00;;;;;;4899692;29;20562;-83
2023/12/14 10:10:49;;;;;;;0.10;0.10;;;8.60;82.30;;;;;;4901829;29;20123;-83
2023/12/14 10:13:14;;;;;;;0.10;0.10;;;8.70;82.20;;;;;;4915194;29;20096;-83
2023/12/14 10:15:48;;;;;;;0.10;0.10;;;8.80;82.00;;;;;;4899590;29;20432;-83
2023/12/14 10:18:27;;;;;;;0.10;0.10;;;8.80;81.60;;;;;;4899813;29;20033;-83
2023/12/14 10:20:53;;;;;;;0.10;0.10;;;8.90;81.70;;;;;;4913026;29;20028;-84
2023/12/14 10:23:19;;;;;;;0.10;0.10;;;8.90;81.70;;;;;;4898851;29;20434;-83
2023/12/14 10:25:45;;;;;;;0.10;0.10;;;9.00;81.40;;;;;;4900933;29;20024;-82
2023/12/14 10:28:14;;;;;;;0.10;0.10;;;9.00;81.50;;;;;;4900625;29;20415;-82
2023/12/14 10:30:41;;;;;;;0.10;0.10;;;9.00;81.40;;;;;;4900589;29;20057;-82
2023/12/14 10:33:06;;;;;;;0.10;0.10;;;9.00;81.40;;;;;;4900751;29;20451;-82
2023/12/14 10:35:32;;;;;;;0.10;0.10;;;9.00;81.50;;;;;;4902497;29;20025;-82
2023/12/14 10:38:04;;;;;;;0.10;0.10;;;9.00;81.50;;;;;;4902583;29;20034;-82
2023/12/14 10:40:30;;;;;;;0.10;0.10;;;9.00;81.70;;;;;;4909089;29;20027;-81
2023/12/14 10:42:59;;;;;;;0.10;0.10;;;9.00;81.80;;;;;;4921179;29;20043;-81
2023/12/14 10:45:32;;;;;;;0.10;0.10;;;9.10;81.50;;;;;;4915077;29;20578;-82
2023/12/14 10:48:00;;;;;;;0.20;0.20;;;9.10;81.50;;;;;;4901335;29;20025;-81
2023/12/14 10:50:28;;;;;;;0.10;0.10;;;9.10;81.70;;;;;;4902022;29;20032;-82
2023/12/14 10:52:54;;;;;;;0.10;0.10;;;9.00;81.80;;;;;;4902472;29;20028;-82
2023/12/14 10:55:25;;;;;;;0.05;0.05;;;9.00;81.60;;;;;;4900325;29;20036;-83
2023/12/14 10:57:53;;;;;;;0.10;0.10;;;9.00;81.70;;;;;;4899352;29;20033;-83
2023/12/14 11:00:18;;;;;;;0.10;0.10;;;9.10;81.80;;;;;;4900168;29;20057;-83
2023/12/14 11:02:47;;;;;;;0.10;0.10;;;9.10;82.00;;;;;;4900422;29;20036;-83
2023/12/14 11:05:22;;;;;;;0.10;0.10;;;9.20;81.90;;;;;;4901882;29;20092;-83
2023/12/14 11:07:57;;;;;;;0.10;0.10;;;9.20;81.70;;;;;;4918750;29;20028;-83
2023/12/14 11:10:36;;;;;;;0.10;0.10;;;9.30;81.70;;;;;;4883684;29;20117;-83
2023/12/14 11:13:05;;;;;;;0.10;0.10;;;9.20;81.60;;;;;;4883634;29;20526;-83
2023/12/14 11:15:35;;;;;;;0.10;0.10;;;9.20;81.80;;;;;;4900988;29;20021;-82
2023/12/14 11:18:12;;;;;;;0.10;0.10;;;9.20;81.80;;;;;;4904684;29;20036;-87
2023/12/14 11:20:48;;;;;;;0.10;0.10;;;9.20;82.00;;;;;;4886731;29;20029;-81
2023/12/14 11:23:33;;;;;;;0.10;0.10;;;9.20;81.90;;;;;;4903671;29;20041;-80
2023/12/14 11:26:08;;;;;;;0.10;0.10;;;9.20;82.20;;;;;;4903610;29;20024;-80
2023/12/14 11:28:36;;;;;;;0.10;0.10;;;9.20;82.40;;;;;;4902672;29;20039;-80
2023/12/14 11:31:06;;;;;;;0.10;0.10;;;9.20;82.80;;;;;;4903769;29;20100;-81
2023/12/14 11:33:33;;;;;;;0.10;0.10;;;9.30;82.70;;;;;;4905273;29;20415;-80
2023/12/14 11:35:58;;;;;;;0.10;0.10;;;9.30;82.70;;;;;;4922289;29;20028;-80
2023/12/14 11:38:25;;;;;;;0.10;0.10;;;9.30;82.60;;;;;;4917266;29;20036;-80
2023/12/14 11:40:50;;;;;;;0.10;0.10;;;9.30;82.80;;;;;;4915643;29;20028;-80
2023/12/14 11:43:16;;;;;;;0.10;0.10;;;9.40;82.70;;;;;;4924071;29;20590;-81
2023/12/14 11:45:42;;;;;;;0.13;0.13;;;9.50;82.60;;;;;;4921786;29;20020;-82
2023/12/14 11:48:11;;;;;;;0.10;0.10;;;9.50;82.60;;;;;;4917374;29;20040;-80
2023/12/14 11:50:42;;;;;;;0.10;0.10;;;9.50;82.50;;;;;;4902144;29;20615;-79
2023/12/14 11:53:09;;;;;;;0.10;0.10;;;9.50;82.50;;;;;;4904913;29;20127;-77
2023/12/14 11:55:40;;;;;;;0.10;0.10;;;9.50;82.60;;;;;;4903764;29;20103;-80
2023/12/14 11:58:06;;;;;;;0.10;0.10;;;9.50;82.70;;;;;;4904719;29;20024;-83
2023/12/14 12:00:33;;;;;;;0.10;0.10;;;9.50;83.00;;;;;;4920580;29;20512;-80
2023/12/14 12:03:13;;;;;;;0.10;0.10;;;9.50;83.00;;;;;;4921256;29;20044;-80
2023/12/14 12:05:39;;;;;;;0.10;0.10;;;9.60;83.20;;;;;;4920725;29;20042;-79
2023/12/14 12:08:05;;;;;;;0.10;0.10;;;9.60;83.10;;;;;;4921688;29;20558;-79
2023/12/14 12:10:31;;;;;;;0.10;0.10;;;9.50;83.10;;;;;;4919281;29;20032;-79
2023/12/14 12:13:08;;;;;;;0.10;0.10;;;9.60;83.20;;;;;;4922970;29;20032;-78
2023/12/14 12:15:35;;;;;;;0.10;0.10;;;9.70;83.20;;;;;;4908840;29;20056;-79
2023/12/14 12:18:12;;;;;;;0.10;0.10;;;9.70;83.20;;;;;;4915287;29;20059;-79
2023/12/14 12:20:39;;;;;;;0.10;0.10;;;9.70;83.20;;;;;;4902173;29;20459;-78
2023/12/14 12:23:05;;;;;;;0.10;0.10;;;9.70;83.20;;;;;;4914935;29;20080;-78
2023/12/14 12:25:31;;;;;;;0.10;0.10;;;9.70;83.30;;;;;;4921546;29;20020;-75
2023/12/14 12:27:58;;;;;;;0.10;0.10;;;9.60;83.60;;;;;;4918172;29;22222;-79
2023/12/14 12:30:24;;;;;;;0.10;0.10;;;9.60;83.50;;;;;;4902513;29;20021;-77
2023/12/14 12:32:53;;;;;;;0.10;0.10;;;9.70;83.80;;;;;;4902403;29;20031;-77
2023/12/14 12:35:23;;;;;;;0.10;0.10;;;9.60;83.80;;;;;;4902653;29;20459;-77
2023/12/14 12:37:53;;;;;;;0.10;0.10;;;9.50;83.80;;;;;;4920585;29;20056;-77
2023/12/14 12:40:20;;;;;;;0.10;0.10;;;9.50;84.00;;;;;;4923002;29;20060;-77
2023/12/14 12:42:50;;;;;;;0.10;0.10;;;9.50;84.00;;;;;;4902911;29;20057;-78
2023/12/14 12:45:22;;;;;;;0.10;0.10;;;9.60;83.80;;;;;;4920779;29;20028;-78
2023/12/14 12:47:47;;;;;;;0.10;0.10;;;9.60;84.10;;;;;;4918970;29;20024;-79
2023/12/14 12:50:13;;;;;;;0.20;0.20;;;9.60;84.00;;;;;;4917597;29;20076;-78
2023/12/14 12:52:39;;;;;;;0.10;0.10;;;9.70;83.90;;;;;;4917837;29;20107;-78
2023/12/14 12:55:07;;;;;;;0.17;0.17;;;9.70;84.00;;;;;;4903642;29;20039;-75
2023/12/14 12:57:32;;;;;;;0.10;0.10;;;9.70;84.00;;;;;;4918196;29;20028;-74
2023/12/14 12:59:58;;;;;;;0.10;0.10;;;9.80;83.90;;;;;;4903345;29;20032;-75
2023/12/14 13:02:24;;;;;;;0.10;0.10;;;9.70;83.90;;;;;;4920448;29;20028;-75
2023/12/14 13:04:50;;;;;;;0.10;0.10;;;9.70;84.20;;;;;;4918113;29;20028;-74
2023/12/14 13:07:16;;;;;;;0.10;0.10;;;9.60;84.50;;;;;;4918472;29;20080;-76
2023/12/14 13:09:42;;;;;;;0.10;0.10;;;9.70;84.60;;;;;;4920342;29;20020;-76
2023/12/14 13:12:07;;;;;;;0.10;0.10;;;9.70;84.60;;;;;;4918907;29;20521;-77
2023/12/14 13:14:33;;;;;;;0.10;0.10;;;9.70;84.40;;;;;;4920387;29;20474;-77
2023/12/14 13:16:59;;;;;;;0.10;0.10;;;9.70;84.60;;;;;;4920326;29;20032;-76
2023/12/14 13:19:25;;;;;;;0.10;0.10;;;9.60;84.50;;;;;;4920138;29;20019;-77
2023/12/14 13:21:51;;;;;;;0.10;0.10;;;9.60;84.80;;;;;;4918177;29;20020;-76
2023/12/14 13:24:17;;;;;;;0.10;0.10;;;9.50;85.00;;;;;;4919963;29;20064;-77
2023/12/14 13:26:43;;;;;;;0.10;0.10;;;9.50;85.00;;;;;;4902797;29;20134;-76
2023/12/14 13:29:08;;;;;;;0.10;0.10;;;9.60;85.40;;;;;;4919930;29;21251;-76
2023/12/14 13:31:34;;;;;;;0.10;0.10;;;9.60;85.00;;;;;;4918724;29;20108;-76
2023/12/14 13:33:59;;;;;;;0.10;0.10;;;9.60;85.10;;;;;;4902789;29;20024;-77
2023/12/14 13:36:25;;;;;;;0.10;0.10;;;9.70;85.10;;;;;;4902866;29;20031;-76
2023/12/14 13:38:51;;;;;;;0.10;0.10;;;9.70;84.80;;;;;;4919106;29;20037;-77
2023/12/14 13:41:16;;;;;;;0.10;0.10;;;9.80;85.00;;;;;;4919084;29;20031;-77
2023/12/14 13:43:43;;;;;;;0.10;0.10;;;9.90;84.80;;;;;;4916873;29;20103;-77
2023/12/14 13:46:09;;;;;;;0.10;0.10;;;9.90;84.40;;;;;;4902689;29;20032;-77
2023/12/14 13:48:35;;;;;;;0.10;0.10;;;9.90;84.30;;;;;;4918449;29;20099;-77
2023/12/14 13:51:00;;;;;;;0.43;0.10;;;9.80;84.10;;;;;;4919421;29;20558;-77
2023/12/14 13:53:26;;;;;;;0.10;0.10;;;9.90;84.20;;;;;;4919001;29;20035;-77
2023/12/14 13:55:51;;;;;;;0.10;0.10;;;9.90;84.10;;;;;;4918888;29;20056;-79
2023/12/14 13:58:17;;;;;;;0.10;0.10;;;9.90;84.30;;;;;;4917834;29;20108;-79
2023/12/14 14:00:44;;;;;;;0.10;0.10;;;10.00;84.00;;;;;;4919644;29;20119;-80
2023/12/14 14:03:10;;;;;;;0.10;0.10;;;10.00;84.00;;;;;;4908050;29;20040;-77
2023/12/14 14:05:35;;;;;;;0.10;0.10;;;10.00;83.90;;;;;;4918522;29;20032;-79
2023/12/14 14:08:01;;;;;;;0.10;0.10;;;10.00;84.00;;;;;;4918120;29;20027;-80
2023/12/14 14:10:27;;;;;;;0.10;0.10;;;10.00;83.80;;;;;;4916867;29;20503;-79
2023/12/14 14:12:53;;;;;;;0.10;0.10;;;10.00;84.10;;;;;;4918558;29;20055;-77
2023/12/14 14:15:20;;;;;;;0.10;0.10;;;10.10;84.00;;;;;;4918800;29;20096;-81
2023/12/14 14:17:48;;;;;;;0.10;0.10;;;10.10;83.90;;;;;;4901373;29;20068;-80
2023/12/14 14:20:14;;;;;;;0.10;0.10;;;10.10;83.90;;;;;;4915220;29;20036;-81
2023/12/14 14:22:39;;;;;;;0.10;0.10;;;10.10;83.80;;;;;;4900604;29;20595;-81
2023/12/14 14:25:08;;;;;;;0.10;0.10;;;10.10;83.80;;;;;;4884107;29;20025;-80
2023/12/14 14:27:34;;;;;;;0.10;0.10;;;10.20;83.80;;;;;;4883910;29;20025;-80
2023/12/14 14:30:00;;;;;;;0.10;0.10;;;10.10;83.70;;;;;;4900299;29;20063;-80
2023/12/14 14:32:26;;;;;;;0.10;0.10;;;10.20;83.60;;;;;;4914036;29;20143;-80
2023/12/14 14:34:54;;;;;;;0.10;0.10;;;10.10;83.80;;;;;;4912764;29;20047;-81
2023/12/14 14:37:20;;;;;;;0.10;0.10;;;10.10;84.00;;;;;;4919355;29;20051;-81
2023/12/14 14:39:47;;;;;;;0.10;0.10;;;10.10;83.80;;;;;;4920268;29;20063;-80
2023/12/14 14:42:13;;;;;;;0.10;0.10;;;10.10;83.90;;;;;;4920688;29;20036;-80
2023/12/14 14:44:39;;;;;;;0.00;0.00;;;10.10;84.00;;;;;;4914723;29;20037;-80
2023/12/14 14:47:05;;;;;;;0.10;0.10;;;10.10;84.10;;;;;;4914900;29;20031;-81
2023/12/14 14:49:31;;;;;;;0.10;0.10;;;10.10;84.00;;;;;;4906509;29;20111;-81
2023/12/14 14:51:56;;;;;;;0.10;0.10;;;10.10;84.20;;;;;;4904008;29;20032;-81
2023/12/14 14:54:22;;;;;;;0.10;0.10;;;10.10;84.40;;;;;;4904501;29;20068;-81
2023/12/14 14:56:47;;;;;;;0.10;0.10;;;10.10;84.70;;;;;;4912513;29;20044;-81
2023/12/14 14:59:15;;;;;;;0.10;0.10;;;10.20;84.90;;;;;;4902801;29;20038;-81
2023/12/14 15:01:41;;;;;;;0.10;0.10;;;10.10;85.10;;;;;;4904217;29;20046;-81
2023/12/14 15:04:07;;;;;;;0.10;0.10;;;10.10;85.40;;;;;;4912308;29;20142;-81
2023/12/14 15:06:33;;;;;;;0.10;0.10;;;10.10;85.50;;;;;;4921443;29;20029;-81
2023/12/14 15:08:59;;;;;;;0.10;0.10;;;10.00;85.80;;;;;;4922958;29;20442;-81
2023/12/14 15:11:25;;;;;;;0.10;0.10;;;10.00;86.10;;;;;;4914249;29;20024;-81
2023/12/14 15:13:51;;;;;;;0.10;0.10;;;10.00;86.10;;;;;;4903832;29;20107;-81
2023/12/14 15:16:18;;;;;;;0.10;0.10;;;10.00;86.20;;;;;;4904182;29;20029;-81
2023/12/14 15:18:43;;;;;;;0.10;0.10;;;10.00;86.20;;;;;;4903951;29;20068;-81
2023/12/14 15:21:10;;;;;;;0.10;0.10;;;10.00;86.30;;;;;;4903548;29;20029;-81
2023/12/14 15:23:36;;;;;;;0.10;0.10;;;10.00;86.60;;;;;;4903710;29;20036;-81
2023/12/14 15:26:02;;;;;;;0.10;0.10;;;10.00;86.60;;;;;;4903652;29;20024;-81
2023/12/14 15:28:28;;;;;;;0.10;0.10;;;10.10;86.60;;;;;;4918254;29;20043;-81
2023/12/14 15:30:53;;;;;;;0.10;0.10;;;10.10;86.60;;;;;;4903477;29;20048;-80
2023/12/14 15:33:20;;;;;;;0.10;0.10;;;10.10;86.60;;;;;;4902615;29;20403;-81
2023/12/14 15:35:46;;;;;;;0.10;0.10;;;10.10;86.70;;;;;;4903576;29;20044;-81
2023/12/14 15:38:11;;;;;;;0.10;0.10;;;10.10;86.70;;;;;;4903394;29;20407;-81
2023/12/14 15:40:38;;;;;;;0.10;0.10;;;10.10;86.80;;;;;;4920880;29;20212;-81
2023/12/14 15:43:06;;;;;;;0.10;0.10;;;10.00;86.90;;;;;;4930946;29;20025;-80
2023/12/14 15:45:33;;;;;;;0.15;0.15;;;10.00;87.10;;;;;;4903391;29;20040;-81
2023/12/14 15:48:00;;;;;;;0.10;0.10;;;10.00;87.20;;;;;;4908101;29;20071;-81
2023/12/14 15:50:26;;;;;;;0.10;0.10;;;10.00;87.40;;;;;;4921981;29;20678;-81
2023/12/14 15:52:51;;;;;;;0.10;0.10;;;10.00;87.40;;;;;;4905045;29;20027;-81
2023/12/14 15:55:18;;;;;;;0.10;0.10;;;10.00;87.60;;;;;;4915542;29;20393;-81
2023/12/14 15:57:47;;;;;;;0.10;0.10;;;10.00;87.60;;;;;;4906954;29;20032;-81
2023/12/14 16:00:14;;;;;;;0.10;0.10;;;10.00;87.80;;;;;;4919698;29;20067;-83
2023/12/14 16:02:40;;;;;;;0.10;0.10;;;10.00;87.80;;;;;;4901166;29;20119;-81
2023/12/14 16:05:07;;;;;;;0.10;0.10;;;10.00;87.80;;;;;;4912792;29;20048;-81
2023/12/14 16:07:33;;;;;;;0.10;0.10;;;10.00;87.90;;;;;;4903033;29;20522;-81
2023/12/14 16:09:59;;;;;;;0.10;0.10;;;10.00;88.00;;;;;;4900732;29;20059;-81
2023/12/14 16:12:25;;;;;;;0.10;0.10;;;10.00;88.00;;;;;;4901838;29;20040;-81
2023/12/14 16:14:51;;;;;;;0.10;0.10;;;10.00;88.10;;;;;;4902776;29;20038;-81
2023/12/14 16:17:17;;;;;;;0.10;0.10;;;10.00;88.10;;;;;;4901197;29;20056;-81
2023/12/14 16:19:43;;;;;;;0.10;0.10;;;10.00;88.20;;;;;;4921534;29;20392;-81
2023/12/14 16:22:08;;;;;;;0.10;0.10;;;10.00;88.10;;;;;;4921249;29;20549;-81
2023/12/14 16:24:34;;;;;;;0.10;0.10;;;10.00;88.20;;;;;;4908677;29;20497;-76
2023/12/14 16:27:00;;;;;;;0.10;0.10;;;10.00;88.20;;;;;;4902636;29;20057;-78
2023/12/14 16:29:28;;;;;;;0.10;0.10;;;10.10;88.10;;;;;;4902400;29;20033;-78
2023/12/14 16:31:54;;;;;;;0.10;0.10;;;10.10;88.10;;;;;;4902674;29;20098;-78
2023/12/14 16:34:19;;;;;;;0.10;0.10;;;10.00;88.20;;;;;;4910218;29;20801;-78
2023/12/14 16:36:49;;;;;;;0.10;0.10;;;10.00;88.30;;;;;;4904434;29;20556;-78
2023/12/14 16:39:15;;;;;;;0.10;0.10;;;10.10;88.20;;;;;;4921365;29;20040;-77
2023/12/14 16:41:40;;;;;;;0.10;0.10;;;10.10;88.10;;;;;;4924262;29;20096;-77
2023/12/14 16:44:06;;;;;;;0.10;0.10;;;10.10;88.30;;;;;;4903148;29;20035;-79
2023/12/14 16:46:31;;;;;;;0.10;0.10;;;10.10;88.40;;;;;;4900387;29;20692;-77
2023/12/14 16:48:58;;;;;;;0.10;0.10;;;10.10;88.30;;;;;;4900179;29;20379;-78
2023/12/14 16:51:27;;;;;;;0.10;0.10;;;10.10;88.40;;;;;;4918245;29;20028;-78
2023/12/14 16:53:53;;;;;;;0.10;0.10;;;10.20;88.30;;;;;;4920627;29;20034;-78
2023/12/14 16:56:19;;;;;;;0.10;0.10;;;10.20;88.30;;;;;;4918314;29;20032;-78
2023/12/14 16:58:45;;;;;;;0.10;0.10;;;10.10;88.20;;;;;;4920642;29;20024;-78
2023/12/14 17:01:12;;;;;;;0.10;0.10;;;10.10;88.40;;;;;;4901762;29;20406;-78
2023/12/14 17:03:37;;;;;;;0.10;0.10;;;10.20;88.30;;;;;;4917158;29;20082;-78
2023/12/14 17:06:07;;;;;;;0.10;0.10;;;10.20;88.50;;;;;;4900490;29;20020;-77
2023/12/14 17:08:33;;;;;;;0.10;0.10;;;10.20;88.50;;;;;;4915807;29;20034;-78
2023/12/14 17:10:59;;;;;;;0.10;0.10;;;10.20;88.50;;;;;;4920291;29;20100;-78
2023/12/14 17:13:24;;;;;;;0.10;0.10;;;10.20;88.50;;;;;;4919266;29;20028;-78
2023/12/14 17:15:50;;;;;;;0.10;0.10;;;10.20;88.60;;;;;;4920255;29;20082;-78
2023/12/14 17:18:16;;;;;;;0.10;0.10;;;10.20;88.70;;;;;;4917829;29;20076;-78
2023/12/14 17:20:42;;;;;;;0.10;0.10;;;10.20;88.70;;;;;;4903160;29;20032;-78
2023/12/14 17:23:08;;;;;;;0.10;0.10;;;10.20;88.70;;;;;;4919969;29;20044;-78
2023/12/14 17:25:33;;;;;;;0.10;0.10;;;10.20;88.70;;;;;;4918940;29;20099;-79
2023/12/14 17:27:59;;;;;;;0.10;0.10;;;10.20;88.80;;;;;;4917621;29;20046;-78
2023/12/14 17:30:25;;;;;;;0.10;0.10;;;10.20;88.90;;;;;;4919649;29;20040;-78
2023/12/14 17:32:50;;;;;;;0.10;0.10;;;10.20;89.00;;;;;;4902116;29;20063;-78
2023/12/14 17:35:17;;;;;;;0.10;0.10;;;10.20;88.90;;;;;;4919634;29;20502;-78
2023/12/14 17:37:42;;;;;;;0.10;0.10;;;10.20;88.80;;;;;;4919732;29;20028;-77
2023/12/14 17:40:09;;;;;;;0.10;0.10;;;10.20;88.90;;;;;;4903733;29;20052;-78
2023/12/14 17:42:35;;;;;;;0.10;0.10;;;10.20;89.00;;;;;;4919650;29;20115;-78
2023/12/14 17:45:01;;;;;;;0.10;0.10;;;10.20;89.20;;;;;;4919193;29;20019;-78
2023/12/14 17:47:27;;;;;;;0.10;0.10;;;10.20;89.20;;;;;;4901785;29;20067;-78
2023/12/14 17:49:53;;;;;;;0.10;0.10;;;10.30;89.10;;;;;;4919572;29;20024;-78
2023/12/14 17:52:19;;;;;;;0.10;0.10;;;10.20;89.20;;;;;;4919581;29;20020;-77
2023/12/14 17:54:45;;;;;;;0.10;0.10;;;10.30;89.10;;;;;;4919218;29;20016;-78
2023/12/14 17:57:10;;;;;;;0.10;0.10;;;10.30;89.10;;;;;;4901532;29;20096;-78
2023/12/14 17:59:39;;;;;;;0.10;0.10;;;10.30;89.00;;;;;;4919615;29;20062;-78
2023/12/14 18:02:05;;;;;;;0.10;0.10;;;10.30;89.00;;;;;;4905315;29;20059;-77
2023/12/14 18:04:31;;;;;;;0.10;0.10;;;10.30;89.00;;;;;;4913375;29;20024;-79
2023/12/14 18:06:56;;;;;;;0.10;0.10;;;10.30;89.10;;;;;;4918688;29;20023;-78
2023/12/14 18:09:22;;;;;;;0.10;0.10;;;10.30;89.00;;;;;;4917931;29;20679;-79
2023/12/14 18:11:48;;;;;;;0.10;0.10;;;10.30;89.40;;;;;;4919031;29;20032;-79
2023/12/14 18:14:15;;;;;;;0.10;0.10;;;10.30;89.20;;;;;;4919673;29;20036;-78
2023/12/14 18:16:42;;;;;;;0.15;0.15;;;10.30;89.20;;;;;;4919583;29;20055;-79
2023/12/14 18:19:08;;;;;;;0.10;0.10;;;10.40;89.30;;;;;;4917645;29;20040;-79